createdAt,value
2023-08-31T00:00:08.084Z,20.05
2023-08-31T00:01:08.256Z,20.05
2023-08-31T00:02:08.453Z,20.05
2023-08-31T00:03:08.714Z,20.04
2023-08-31T00:04:08.838Z,20.05
2023-08-31T00:05:08.977Z,19.99
2023-08-31T00:06:09.210Z,20.02
2023-08-31T00:07:09.335Z,20.04
2023-08-31T00:08:09.566Z,20.05
2023-08-31T00:09:09.698Z,20.06
2023-08-31T00:10:09.896Z,20.06
2023-08-31T00:11:10.052Z,20.06
2023-08-31T00:12:10.278Z,20.05
2023-08-31T00:13:10.736Z,20.06
2023-08-31T00:14:10.699Z,20.06
2023-08-31T00:15:10.839Z,20.06
2023-08-31T00:16:11.084Z,20.08
2023-08-31T00:17:11.216Z,20.09
2023-08-31T00:18:11.398Z,20.05
2023-08-31T00:19:11.585Z,20.06
2023-08-31T00:20:11.740Z,20.04
2023-08-31T00:21:11.958Z,20.05
2023-08-31T00:22:12.145Z,20.08
2023-08-31T00:23:12.718Z,20.02
2023-08-31T00:24:12.494Z,20.05
2023-08-31T00:25:12.699Z,20.02
2023-08-31T00:26:12.879Z,20.05
2023-08-31T00:27:13.083Z,20.04
2023-08-31T00:28:13.206Z,20.01
2023-08-31T00:29:13.402Z,20.02
2023-08-31T00:30:13.579Z,20.01
2023-08-31T00:31:13.807Z,20.01
2023-08-31T00:32:13.986Z,20.04
2023-08-31T00:33:14.524Z,20.01
2023-08-31T00:34:14.301Z,19.98
2023-08-31T00:35:14.466Z,20.01
2023-08-31T00:36:14.666Z,20.01
2023-08-31T00:37:14.888Z,19.99
2023-08-31T00:38:15.269Z,19.99
2023-08-31T00:39:15.210Z,20.01
2023-08-31T00:40:15.476Z,20.01
2023-08-31T00:41:15.609Z,19.99
2023-08-31T00:42:15.813Z,20.02
2023-08-31T00:43:16.003Z,19.98
2023-08-31T00:44:17.483Z,19.99
2023-08-31T00:45:16.372Z,19.99
2023-08-31T00:46:16.544Z,19.96
2023-08-31T00:47:16.759Z,19.98
2023-08-31T00:48:16.889Z,19.96
2023-08-31T00:49:17.147Z,19.98
2023-08-31T00:50:17.305Z,19.93
2023-08-31T00:51:17.485Z,19.94
2023-08-31T00:52:17.691Z,19.90
2023-08-31T00:53:17.845Z,19.86
2023-08-31T00:54:18.014Z,19.83
2023-08-31T00:55:18.234Z,19.82
2023-08-31T00:56:18.410Z,19.81
2023-08-31T00:57:18.613Z,19.74
2023-08-31T00:58:18.779Z,19.75
2023-08-31T00:59:18.995Z,19.71
2023-08-31T01:00:19.177Z,19.70
2023-08-31T01:01:19.382Z,19.68
2023-08-31T01:02:19.582Z,19.67
2023-08-31T01:03:19.816Z,19.68
2023-08-31T01:04:20.042Z,19.66
2023-08-31T01:05:20.046Z,19.68
2023-08-31T01:06:20.275Z,19.67
2023-08-31T01:07:20.446Z,19.66
2023-08-31T01:08:20.614Z,19.66
2023-08-31T01:09:20.789Z,19.64
2023-08-31T01:10:20.965Z,19.58
2023-08-31T01:11:21.157Z,19.61
2023-08-31T01:12:21.380Z,19.59
2023-08-31T01:13:21.543Z,19.59
2023-08-31T01:14:21.689Z,19.53
2023-08-31T01:15:21.914Z,19.58
2023-08-31T01:16:22.106Z,19.56
2023-08-31T01:17:22.298Z,19.59
2023-08-31T01:18:22.420Z,19.58
2023-08-31T01:19:22.639Z,19.55
2023-08-31T01:20:22.870Z,19.59
2023-08-31T01:21:23.012Z,19.55
2023-08-31T01:22:23.209Z,19.52
2023-08-31T01:23:23.376Z,19.56
2023-08-31T01:24:23.546Z,19.51
2023-08-31T01:25:23.733Z,19.51
2023-08-31T01:26:23.876Z,19.48
2023-08-31T01:27:24.081Z,19.52
2023-08-31T01:28:24.238Z,19.48
2023-08-31T01:29:24.456Z,19.48
2023-08-31T01:30:24.617Z,19.49
2023-08-31T01:31:24.828Z,19.52
2023-08-31T01:32:24.966Z,19.51
2023-08-31T01:33:25.191Z,19.51
2023-08-31T01:34:25.325Z,19.53
2023-08-31T01:35:25.517Z,19.53
2023-08-31T01:36:25.714Z,19.53
2023-08-31T01:37:25.884Z,19.51
2023-08-31T01:38:26.146Z,19.52
2023-08-31T01:39:26.251Z,19.49
2023-08-31T01:40:26.452Z,19.49
2023-08-31T01:41:26.647Z,19.53
2023-08-31T01:42:26.787Z,19.56
2023-08-31T01:43:26.994Z,19.53
2023-08-31T01:44:27.225Z,19.51
2023-08-31T01:45:27.411Z,19.49
2023-08-31T01:46:27.559Z,19.51
2023-08-31T01:47:27.765Z,19.49
2023-08-31T01:48:27.932Z,19.43
2023-08-31T01:49:28.112Z,19.42
2023-08-31T01:50:28.384Z,19.43
2023-08-31T01:51:28.445Z,19.45
2023-08-31T01:52:28.606Z,19.42
2023-08-31T01:53:28.791Z,19.40
2023-08-31T01:54:29.016Z,19.42
2023-08-31T01:55:29.182Z,19.40
2023-08-31T01:56:29.353Z,19.37
2023-08-31T01:57:29.536Z,19.36
2023-08-31T01:58:29.713Z,19.31
2023-08-31T01:59:29.894Z,19.33
2023-08-31T02:00:30.148Z,19.31
2023-08-31T02:01:30.403Z,19.33
2023-08-31T02:02:30.520Z,19.31
2023-08-31T02:03:30.643Z,19.30
2023-08-31T02:04:30.823Z,19.31
2023-08-31T02:05:30.998Z,19.28
2023-08-31T02:06:31.146Z,19.28
2023-08-31T02:07:31.346Z,19.24
2023-08-31T02:08:31.549Z,19.24
2023-08-31T02:09:31.712Z,19.26
2023-08-31T02:10:32.053Z,19.22
2023-08-31T02:11:32.110Z,19.21
2023-08-31T02:12:32.289Z,19.21
2023-08-31T02:13:32.495Z,19.19
2023-08-31T02:14:32.624Z,19.22
2023-08-31T02:15:32.903Z,19.21
2023-08-31T02:16:33.007Z,19.16
2023-08-31T02:17:33.258Z,19.19
2023-08-31T02:18:33.385Z,19.18
2023-08-31T02:19:33.605Z,19.21
2023-08-31T02:20:33.783Z,19.16
2023-08-31T02:21:33.951Z,19.16
2023-08-31T02:22:34.115Z,19.16
2023-08-31T02:23:34.344Z,19.19
2023-08-31T02:24:34.478Z,19.16
2023-08-31T02:25:34.722Z,19.16
2023-08-31T02:26:34.810Z,19.13
2023-08-31T02:27:35.054Z,19.12
2023-08-31T02:28:35.243Z,19.09
2023-08-31T02:29:35.334Z,19.09
2023-08-31T02:30:35.564Z,19.08
2023-08-31T02:31:35.759Z,19.06
2023-08-31T02:32:36.064Z,19.11
2023-08-31T02:33:36.115Z,19.08
2023-08-31T02:34:36.322Z,19.08
2023-08-31T02:35:36.525Z,19.08
2023-08-31T02:36:36.693Z,19.05
2023-08-31T02:37:36.855Z,19.08
2023-08-31T02:38:37.029Z,19.05
2023-08-31T02:39:37.212Z,19.05
2023-08-31T02:40:37.410Z,19.03
2023-08-31T02:41:37.630Z,19.01
2023-08-31T02:42:37.757Z,18.98
2023-08-31T02:43:37.959Z,19.00
2023-08-31T02:44:38.149Z,18.98
2023-08-31T02:45:38.320Z,18.98
2023-08-31T02:46:38.592Z,18.98
2023-08-31T02:47:38.764Z,18.97
2023-08-31T02:48:38.885Z,19.01
2023-08-31T02:49:39.026Z,19.01
2023-08-31T02:50:39.250Z,18.97
2023-08-31T02:51:39.397Z,19.00
2023-08-31T02:52:39.574Z,18.94
2023-08-31T02:53:39.735Z,18.97
2023-08-31T02:54:39.950Z,18.93
2023-08-31T02:55:40.123Z,18.93
2023-08-31T02:56:40.324Z,18.90
2023-08-31T02:57:40.470Z,18.87
2023-08-31T02:58:40.977Z,18.88
2023-08-31T02:59:40.872Z,18.83
2023-08-31T03:00:41.108Z,18.79
2023-08-31T03:01:41.289Z,18.72
2023-08-31T03:02:41.501Z,18.73
2023-08-31T03:03:41.626Z,18.71
2023-08-31T03:04:41.811Z,18.68
2023-08-31T03:05:42.019Z,18.66
2023-08-31T03:06:42.191Z,18.68
2023-08-31T03:07:42.370Z,18.66
2023-08-31T03:08:42.548Z,18.66
2023-08-31T03:09:42.768Z,18.68
2023-08-31T03:10:42.983Z,18.66
2023-08-31T03:11:43.095Z,18.68
2023-08-31T03:12:43.320Z,18.64
2023-08-31T03:13:43.523Z,18.61
2023-08-31T03:14:43.671Z,18.66
2023-08-31T03:15:43.889Z,18.61
2023-08-31T03:16:44.115Z,18.63
2023-08-31T03:17:44.274Z,18.63
2023-08-31T03:18:44.452Z,18.63
2023-08-31T03:19:44.601Z,18.61
2023-08-31T03:20:44.826Z,18.61
2023-08-31T03:21:44.995Z,18.61
2023-08-31T03:22:45.158Z,18.63
2023-08-31T03:23:45.371Z,18.60
2023-08-31T03:24:45.586Z,18.64
2023-08-31T03:25:45.857Z,18.63
2023-08-31T03:26:45.917Z,18.64
2023-08-31T03:27:46.134Z,18.60
2023-08-31T03:28:46.293Z,18.63
2023-08-31T03:29:46.516Z,18.61
2023-08-31T03:30:46.749Z,18.60
2023-08-31T03:31:46.857Z,18.60
2023-08-31T03:34:02.226Z,18.56
2023-08-31T03:35:02.381Z,18.48
2023-08-31T03:36:02.553Z,18.46
2023-08-31T03:37:02.735Z,18.42
2023-08-31T03:38:02.901Z,18.48
2023-08-31T03:39:03.110Z,18.46
2023-08-31T03:40:03.312Z,18.44
2023-08-31T03:41:03.485Z,18.42
2023-08-31T03:42:03.674Z,18.44
2023-08-31T03:43:03.825Z,18.44
2023-08-31T03:44:04.042Z,18.46
2023-08-31T03:45:04.224Z,18.46
2023-08-31T03:46:04.470Z,18.44
2023-08-31T03:47:04.592Z,18.46
2023-08-31T03:48:04.794Z,18.44
2023-08-31T03:49:04.966Z,18.44
2023-08-31T03:50:05.173Z,18.44
2023-08-31T03:51:05.335Z,18.44
2023-08-31T03:52:05.600Z,18.44
2023-08-31T03:53:05.739Z,18.41
2023-08-31T03:54:05.959Z,18.42
2023-08-31T03:55:06.134Z,18.41
2023-08-31T03:56:06.311Z,18.42
2023-08-31T03:57:06.484Z,18.38
2023-08-31T03:58:06.691Z,18.38
2023-08-31T03:59:06.864Z,18.34
2023-08-31T04:00:07.037Z,18.31
2023-08-31T04:01:07.312Z,18.31
2023-08-31T04:02:07.506Z,18.33
2023-08-31T04:03:07.803Z,18.33
2023-08-31T04:04:07.898Z,18.35
2023-08-31T04:05:07.990Z,18.33
2023-08-31T04:06:08.140Z,18.31
2023-08-31T04:07:08.336Z,18.25
2023-08-31T04:08:08.567Z,18.27
2023-08-31T04:09:08.729Z,18.26
2023-08-31T04:10:08.909Z,18.26
2023-08-31T04:11:09.056Z,18.23
2023-08-31T04:12:09.256Z,18.25
2023-08-31T04:13:09.512Z,18.20
2023-08-31T04:14:09.609Z,18.17
2023-08-31T04:15:09.811Z,18.15
2023-08-31T04:17:10.340Z,18.15
2023-08-31T04:18:10.486Z,18.15
2023-08-31T04:19:11.171Z,18.16
2023-08-31T04:20:10.767Z,18.13
2023-08-31T04:21:10.966Z,18.13
2023-08-31T04:22:11.140Z,18.12
2023-08-31T04:23:11.594Z,18.13
2023-08-31T04:24:11.563Z,18.15
2023-08-31T04:25:11.715Z,18.13
2023-08-31T04:26:11.952Z,18.12
2023-08-31T04:27:12.105Z,18.15
2023-08-31T04:28:12.248Z,18.08
2023-08-31T04:29:12.465Z,18.10
2023-08-31T04:30:12.632Z,18.12
2023-08-31T04:31:12.860Z,18.08
2023-08-31T04:32:12.987Z,18.07
2023-08-31T04:33:13.461Z,18.05
2023-08-31T04:34:13.388Z,18.05
2023-08-31T04:35:13.476Z,18.07
2023-08-31T04:36:14.226Z,18.02
2023-08-31T04:37:13.884Z,18.01
2023-08-31T04:38:14.057Z,18.01
2023-08-31T04:39:14.271Z,18.02
2023-08-31T04:40:14.429Z,18.00
2023-08-31T04:41:14.606Z,18.01
2023-08-31T04:42:14.817Z,17.97
2023-08-31T04:43:15.008Z,17.98
2023-08-31T04:44:15.199Z,17.98
2023-08-31T04:45:15.342Z,17.95
2023-08-31T04:46:15.583Z,17.94
2023-08-31T04:47:15.691Z,17.92
2023-08-31T04:48:15.880Z,17.90
2023-08-31T04:49:16.074Z,17.90
2023-08-31T04:50:16.300Z,17.90
2023-08-31T04:51:16.445Z,17.92
2023-08-31T04:52:16.713Z,17.95
2023-08-31T04:53:16.825Z,17.90
2023-08-31T04:54:16.968Z,17.94
2023-08-31T04:55:17.185Z,17.97
2023-08-31T04:56:17.359Z,17.95
2023-08-31T04:57:17.546Z,17.97
2023-08-31T04:58:17.694Z,18.00
2023-08-31T04:59:17.885Z,18.02
2023-08-31T05:00:18.056Z,18.01
2023-08-31T05:01:18.264Z,18.05
2023-08-31T05:02:18.393Z,18.08
2023-08-31T05:03:18.553Z,18.07
2023-08-31T05:04:18.835Z,18.07
2023-08-31T05:05:18.945Z,18.08
2023-08-31T05:06:19.098Z,18.07
2023-08-31T05:07:19.301Z,18.08
2023-08-31T05:08:19.514Z,18.10
2023-08-31T05:09:19.693Z,18.12
2023-08-31T05:10:19.846Z,18.10
2023-08-31T05:11:20.023Z,18.10
2023-08-31T05:12:20.226Z,18.10
2023-08-31T05:13:20.410Z,18.12
2023-08-31T05:14:20.617Z,18.10
2023-08-31T05:15:20.753Z,18.08
2023-08-31T05:16:20.929Z,18.12
2023-08-31T05:17:21.182Z,18.13
2023-08-31T05:18:21.286Z,18.13
2023-08-31T05:19:21.532Z,18.13
2023-08-31T05:20:21.670Z,18.15
2023-08-31T05:21:21.876Z,18.12
2023-08-31T05:22:22.043Z,18.16
2023-08-31T05:23:22.164Z,18.16
2023-08-31T05:24:22.380Z,18.16
2023-08-31T05:25:22.546Z,18.19
2023-08-31T05:26:22.727Z,18.16
2023-08-31T05:27:22.907Z,18.22
2023-08-31T05:28:23.064Z,18.22
2023-08-31T05:29:23.238Z,18.23
2023-08-31T05:30:23.451Z,18.22
2023-08-31T05:31:23.604Z,18.20
2023-08-31T05:32:23.838Z,18.22
2023-08-31T05:33:23.991Z,18.25
2023-08-31T05:34:24.213Z,18.25
2023-08-31T05:35:24.350Z,18.23
2023-08-31T05:36:24.518Z,18.27
2023-08-31T05:37:24.741Z,18.31
2023-08-31T05:38:24.867Z,18.33
2023-08-31T05:39:25.034Z,18.33
2023-08-31T05:40:25.255Z,18.34
2023-08-31T05:41:25.447Z,18.34
2023-08-31T05:42:25.642Z,18.37
2023-08-31T05:43:25.835Z,18.37
2023-08-31T05:44:25.995Z,18.38
2023-08-31T05:45:26.157Z,18.38
2023-08-31T05:46:26.382Z,18.38
2023-08-31T05:47:26.587Z,18.37
2023-08-31T05:48:26.723Z,18.41
2023-08-31T05:49:26.885Z,18.41
2023-08-31T05:50:27.137Z,18.42
2023-08-31T05:51:27.264Z,18.46
2023-08-31T05:52:27.466Z,18.51
2023-08-31T05:53:27.629Z,18.53
2023-08-31T05:54:27.785Z,18.57
2023-08-31T05:55:28.029Z,18.57
2023-08-31T05:56:28.177Z,18.53
2023-08-31T05:57:28.305Z,18.61
2023-08-31T05:58:28.583Z,18.60
2023-08-31T05:59:28.701Z,18.63
2023-08-31T06:00:28.977Z,18.63
2023-08-31T06:01:29.182Z,18.66
2023-08-31T06:02:29.406Z,18.66
2023-08-31T06:03:29.444Z,18.60
2023-08-31T06:04:29.684Z,18.68
2023-08-31T06:05:29.798Z,18.66
2023-08-31T06:06:29.989Z,18.68
2023-08-31T06:07:30.226Z,18.71
2023-08-31T06:08:30.400Z,18.68
2023-08-31T06:09:30.537Z,18.66
2023-08-31T06:10:30.725Z,18.63
2023-08-31T06:11:30.909Z,18.66
2023-08-31T06:12:31.090Z,18.63
2023-08-31T06:13:31.300Z,18.60
2023-08-31T06:14:31.453Z,18.61
2023-08-31T06:15:31.611Z,18.56
2023-08-31T06:16:31.865Z,18.58
2023-08-31T06:17:32.029Z,18.57
2023-08-31T06:18:32.217Z,18.58
2023-08-31T06:19:32.373Z,18.57
2023-08-31T06:20:32.528Z,18.61
2023-08-31T06:21:32.707Z,18.58
2023-08-31T06:22:32.921Z,18.56
2023-08-31T06:23:33.120Z,18.57
2023-08-31T06:24:33.267Z,18.57
2023-08-31T06:25:33.452Z,18.54
2023-08-31T06:26:33.634Z,18.56
2023-08-31T06:27:33.831Z,18.56
2023-08-31T06:28:34.068Z,18.57
2023-08-31T06:29:34.224Z,18.58
2023-08-31T06:30:34.384Z,18.61
2023-08-31T06:31:34.659Z,18.61
2023-08-31T06:32:34.764Z,18.64
2023-08-31T06:33:34.932Z,18.61
2023-08-31T06:34:35.132Z,18.63
2023-08-31T06:35:35.322Z,18.63
2023-08-31T06:36:35.473Z,18.60
2023-08-31T06:37:35.714Z,18.64
2023-08-31T06:38:35.855Z,18.71
2023-08-31T06:39:36.028Z,18.71
2023-08-31T06:40:36.284Z,18.71
2023-08-31T06:41:36.378Z,18.73
2023-08-31T06:42:36.588Z,18.75
2023-08-31T06:43:36.777Z,18.79
2023-08-31T06:44:36.908Z,18.79
2023-08-31T06:45:37.107Z,18.78
2023-08-31T06:46:37.314Z,18.79
2023-08-31T06:47:37.456Z,18.87
2023-08-31T06:48:37.706Z,18.85
2023-08-31T06:49:37.821Z,18.90
2023-08-31T06:50:38.032Z,18.90
2023-08-31T06:51:38.214Z,18.90
2023-08-31T06:52:38.352Z,18.87
2023-08-31T06:53:39.496Z,18.91
2023-08-31T06:54:38.713Z,18.90
2023-08-31T06:55:38.922Z,18.93
2023-08-31T06:56:39.094Z,18.94
2023-08-31T06:57:39.295Z,18.98
2023-08-31T06:58:39.469Z,19.00
2023-08-31T06:59:39.638Z,19.03
2023-08-31T07:00:39.844Z,19.06
2023-08-31T07:01:40.057Z,19.09
2023-08-31T07:02:40.289Z,19.13
2023-08-31T07:03:40.518Z,19.15
2023-08-31T07:04:40.583Z,19.15
2023-08-31T07:05:40.731Z,19.16
2023-08-31T07:06:40.960Z,19.22
2023-08-31T07:07:41.099Z,19.24
2023-08-31T07:08:41.313Z,19.26
2023-08-31T07:09:41.500Z,19.27
2023-08-31T07:10:41.725Z,19.27
2023-08-31T07:11:41.902Z,19.33
2023-08-31T07:12:42.031Z,19.36
2023-08-31T07:13:42.227Z,19.40
2023-08-31T07:14:42.408Z,19.38
2023-08-31T07:15:42.641Z,19.43
2023-08-31T07:16:42.785Z,19.45
2023-08-31T07:17:42.968Z,19.48
2023-08-31T07:18:43.174Z,19.49
2023-08-31T07:19:43.355Z,19.52
2023-08-31T07:20:43.585Z,19.55
2023-08-31T07:21:43.798Z,19.59
2023-08-31T07:22:43.894Z,19.63
2023-08-31T07:23:44.102Z,19.66
2023-08-31T07:24:44.317Z,19.71
2023-08-31T07:25:44.450Z,19.71
2023-08-31T07:26:44.684Z,19.74
2023-08-31T07:27:44.818Z,19.75
2023-08-31T07:28:45.024Z,19.75
2023-08-31T07:29:45.186Z,19.81
2023-08-31T07:30:45.351Z,19.83
2023-08-31T07:31:45.617Z,19.90
2023-08-31T07:32:45.769Z,19.91
2023-08-31T07:33:45.981Z,19.96
2023-08-31T07:34:46.127Z,20.02
2023-08-31T07:35:46.320Z,20.06
2023-08-31T07:36:46.538Z,20.09
2023-08-31T07:37:46.684Z,20.17
2023-08-31T07:38:46.844Z,20.19
2023-08-31T07:39:47.078Z,20.20
2023-08-31T07:40:47.240Z,20.20
2023-08-31T07:41:47.432Z,20.21
2023-08-31T07:42:47.601Z,20.26
2023-08-31T07:44:03.661Z,20.29
2023-08-31T07:44:48.987Z,20.33
2023-08-31T07:45:48.127Z,20.33
2023-08-31T07:46:48.382Z,20.41
2023-08-31T07:47:48.543Z,20.41
2023-08-31T07:48:48.691Z,20.44
2023-08-31T07:49:48.935Z,20.49
2023-08-31T07:50:49.120Z,20.49
2023-08-31T07:51:49.248Z,20.59
2023-08-31T07:52:49.463Z,20.61
2023-08-31T07:53:49.651Z,20.64
2023-08-31T07:54:49.819Z,20.74
2023-08-31T07:55:49.981Z,20.75
2023-08-31T07:56:50.252Z,20.74
2023-08-31T07:57:50.380Z,20.76
2023-08-31T07:58:50.536Z,20.75
2023-08-31T07:59:50.706Z,20.78
2023-08-31T08:00:50.962Z,20.84
2023-08-31T08:01:51.224Z,20.88
2023-08-31T08:02:51.369Z,20.97
2023-08-31T08:03:51.566Z,21.06
2023-08-31T08:04:51.630Z,21.12
2023-08-31T08:05:51.876Z,21.22
2023-08-31T08:06:52.019Z,21.23
2023-08-31T08:07:52.168Z,21.29
2023-08-31T08:08:52.378Z,21.34
2023-08-31T08:09:52.556Z,21.35
2023-08-31T08:10:52.765Z,21.44
2023-08-31T08:11:52.963Z,21.45
2023-08-31T08:12:53.122Z,21.57
2023-08-31T08:13:53.297Z,21.57
2023-08-31T08:14:53.511Z,21.63
2023-08-31T08:15:53.690Z,21.67
2023-08-31T08:16:53.908Z,21.64
2023-08-31T08:17:54.141Z,21.68
2023-08-31T08:18:54.650Z,21.69
2023-08-31T08:19:54.394Z,21.69
2023-08-31T08:20:54.637Z,21.77
2023-08-31T08:21:54.853Z,21.72
2023-08-31T08:22:55.073Z,21.72
2023-08-31T08:23:55.209Z,21.78
2023-08-31T08:24:55.360Z,21.82
2023-08-31T08:25:55.556Z,21.87
2023-08-31T08:26:55.722Z,21.97
2023-08-31T08:27:55.906Z,22.08
2023-08-31T08:28:56.071Z,22.18
2023-08-31T08:29:56.270Z,22.24
2023-08-31T08:30:56.522Z,22.34
2023-08-31T08:31:56.653Z,22.42
2023-08-31T08:32:56.877Z,22.45
2023-08-31T08:33:57.021Z,22.48
2023-08-31T08:34:57.194Z,22.51
2023-08-31T08:35:57.396Z,22.55
2023-08-31T08:36:57.585Z,22.63
2023-08-31T08:37:57.755Z,22.63
2023-08-31T08:38:57.937Z,22.68
2023-08-31T08:39:58.121Z,22.66
2023-08-31T08:40:58.349Z,22.66
2023-08-31T08:41:58.474Z,22.64
2023-08-31T08:42:58.654Z,22.64
2023-08-31T08:43:58.861Z,22.64
2023-08-31T08:44:59.023Z,22.64
2023-08-31T08:45:59.203Z,22.63
2023-08-31T08:46:59.415Z,22.63
2023-08-31T08:47:59.620Z,22.67
2023-08-31T08:48:59.734Z,22.77
2023-08-31T08:49:59.915Z,22.82
2023-08-31T08:51:00.135Z,22.83
2023-08-31T08:52:00.404Z,22.90
2023-08-31T08:53:00.487Z,22.92
2023-08-31T08:54:00.674Z,23.02
2023-08-31T08:55:00.856Z,23.04
2023-08-31T08:56:01.035Z,23.07
2023-08-31T08:57:01.235Z,23.09
2023-08-31T08:58:01.447Z,23.14
2023-08-31T08:59:01.551Z,23.19
2023-08-31T09:00:01.778Z,23.24
2023-08-31T09:01:01.939Z,23.24
2023-08-31T09:02:02.231Z,23.23
2023-08-31T09:03:02.333Z,23.24
2023-08-31T09:04:02.486Z,23.29
2023-08-31T09:05:02.741Z,23.35
2023-08-31T09:06:03.497Z,23.39
2023-08-31T09:07:02.996Z,23.42
2023-08-31T09:08:03.199Z,23.48
2023-08-31T09:09:03.353Z,23.48
2023-08-31T09:10:03.572Z,23.48
2023-08-31T09:11:03.835Z,23.51
2023-08-31T09:12:03.945Z,23.56
2023-08-31T09:13:04.083Z,23.57
2023-08-31T09:14:04.314Z,23.63
2023-08-31T09:15:04.463Z,23.69
2023-08-31T09:16:04.715Z,23.66
2023-08-31T09:17:05.017Z,23.69
2023-08-31T09:18:05.039Z,23.75
2023-08-31T09:19:05.185Z,23.74
2023-08-31T09:20:05.408Z,23.76
2023-08-31T09:21:05.574Z,23.75
2023-08-31T09:22:05.749Z,23.75
2023-08-31T09:23:05.932Z,23.75
2023-08-31T09:24:06.057Z,23.76
2023-08-31T09:25:06.347Z,23.74
2023-08-31T09:26:06.441Z,23.74
2023-08-31T09:27:06.627Z,23.71
2023-08-31T09:28:06.839Z,23.72
2023-08-31T09:29:07.015Z,23.79
2023-08-31T09:30:07.199Z,23.89
2023-08-31T09:31:07.422Z,23.96
2023-08-31T09:32:07.577Z,24.01
2023-08-31T09:33:07.769Z,24.09
2023-08-31T09:35:23.669Z,24.16
2023-08-31T09:36:23.186Z,24.23
2023-08-31T09:37:23.369Z,24.32
2023-08-31T09:38:23.579Z,24.42
2023-08-31T09:39:23.766Z,24.53
2023-08-31T09:40:24.201Z,24.65
2023-08-31T09:41:24.132Z,24.59
2023-08-31T09:42:24.324Z,24.59
2023-08-31T09:43:24.496Z,24.56
2023-08-31T09:44:24.658Z,24.53
2023-08-31T09:45:35.908Z,24.49
2023-08-31T09:46:26.115Z,24.49
2023-08-31T09:47:26.613Z,24.44
2023-08-31T09:48:25.478Z,24.44
2023-08-31T09:49:25.574Z,24.39
2023-08-31T09:50:25.792Z,24.38
2023-08-31T09:51:25.991Z,24.38
2023-08-31T09:52:26.127Z,24.34
2023-08-31T09:53:28.570Z,24.38
2023-08-31T09:54:26.483Z,24.35
2023-08-31T09:55:26.650Z,24.51
2023-08-31T09:56:26.872Z,24.61
2023-08-31T09:57:43.752Z,24.72
2023-08-31T09:58:28.215Z,24.83
2023-08-31T09:59:28.895Z,24.88
2023-08-31T10:00:27.625Z,24.91
2023-08-31T10:01:30.076Z,24.94
2023-08-31T10:02:28.006Z,25.06
2023-08-31T10:03:28.215Z,25.21
2023-08-31T10:04:28.340Z,25.25
2023-08-31T10:05:28.793Z,25.20
2023-08-31T10:06:28.714Z,25.21
2023-08-31T10:07:28.887Z,25.11
2023-08-31T10:08:29.047Z,25.11
2023-08-31T10:09:29.215Z,25.06
2023-08-31T10:10:29.439Z,24.97
2023-08-31T10:11:29.630Z,24.87
2023-08-31T10:12:29.821Z,24.79
2023-08-31T10:13:30.012Z,24.69
2023-08-31T10:14:30.222Z,24.60
2023-08-31T10:15:30.551Z,24.50
2023-08-31T10:16:30.656Z,24.41
2023-08-31T10:17:30.818Z,24.31
2023-08-31T10:18:31.077Z,24.24
2023-08-31T10:19:31.151Z,24.16
2023-08-31T10:20:31.364Z,24.04
2023-08-31T10:21:31.539Z,23.98
2023-08-31T10:22:31.661Z,23.85
2023-08-31T10:23:31.884Z,23.81
2023-08-31T10:24:32.050Z,23.72
2023-08-31T10:25:32.252Z,23.61
2023-08-31T10:26:32.429Z,23.56
2023-08-31T10:27:32.633Z,23.48
2023-08-31T10:28:32.795Z,23.39
2023-08-31T10:29:32.992Z,23.38
2023-08-31T10:30:33.160Z,23.26
2023-08-31T10:31:33.423Z,23.26
2023-08-31T10:32:33.602Z,23.22
2023-08-31T10:33:33.774Z,23.17
2023-08-31T10:34:33.900Z,23.19
2023-08-31T10:35:34.064Z,23.16
2023-08-31T10:36:34.284Z,23.14
2023-08-31T10:37:34.415Z,23.16
2023-08-31T10:38:34.602Z,23.12
2023-08-31T10:39:34.821Z,23.14
2023-08-31T10:40:34.996Z,23.19
2023-08-31T10:41:36.764Z,23.23
2023-08-31T10:42:35.384Z,23.34
2023-08-31T10:43:46.611Z,23.41
2023-08-31T10:44:36.757Z,23.51
2023-08-31T10:45:35.925Z,23.64
2023-08-31T10:46:36.160Z,23.76
2023-08-31T10:47:36.872Z,23.96
2023-08-31T10:48:36.551Z,24.09
2023-08-31T10:49:36.706Z,24.20
2023-08-31T10:50:36.876Z,24.36
2023-08-31T10:51:37.088Z,24.50
2023-08-31T10:52:42.437Z,24.66
2023-08-31T10:53:39.290Z,24.79
2023-08-31T10:54:37.650Z,24.91
2023-08-31T10:55:37.876Z,25.06
2023-08-31T10:56:38.048Z,25.20
2023-08-31T10:57:38.233Z,25.30
2023-08-31T10:58:38.397Z,25.46
2023-08-31T10:59:39.602Z,25.62
2023-08-31T11:00:38.726Z,25.77
2023-08-31T11:01:39.008Z,25.90
2023-08-31T11:02:39.107Z,26.06
2023-08-31T11:03:39.372Z,26.18
2023-08-31T11:04:39.489Z,26.32
2023-08-31T11:05:39.640Z,26.46
2023-08-31T11:06:39.847Z,26.51
2023-08-31T11:07:40.008Z,26.52
2023-08-31T11:08:40.187Z,26.64
2023-08-31T11:09:40.402Z,26.74
2023-08-31T11:10:40.556Z,26.74
2023-08-31T11:11:40.793Z,26.74
2023-08-31T11:12:40.907Z,26.82
2023-08-31T11:13:41.090Z,26.98
2023-08-31T11:14:41.302Z,27.12
2023-08-31T11:15:41.473Z,27.30
2023-08-31T11:16:41.655Z,27.39
2023-08-31T11:17:41.812Z,27.37
2023-08-31T11:18:42.006Z,27.33
2023-08-31T11:19:42.195Z,27.42
2023-08-31T11:20:42.362Z,27.49
2023-08-31T11:21:42.597Z,27.47
2023-08-31T11:22:42.807Z,27.42
2023-08-31T11:23:42.944Z,27.42
2023-08-31T11:24:43.112Z,27.58
2023-08-31T11:25:43.308Z,27.55
2023-08-31T11:26:43.500Z,27.54
2023-08-31T11:27:43.696Z,27.52
2023-08-31T11:28:43.885Z,27.48
2023-08-31T11:29:44.054Z,27.51
2023-08-31T11:30:44.226Z,27.47
2023-08-31T11:31:44.487Z,27.44
2023-08-31T11:32:44.639Z,27.45
2023-08-31T11:33:44.785Z,27.44
2023-08-31T11:34:44.983Z,27.47
2023-08-31T11:35:45.171Z,27.39
2023-08-31T11:36:45.361Z,27.41
2023-08-31T11:37:45.548Z,27.47
2023-08-31T11:38:45.706Z,27.63
2023-08-31T11:39:45.889Z,27.79
2023-08-31T11:40:46.077Z,27.86
2023-08-31T11:41:46.280Z,28.04
2023-08-31T11:42:46.420Z,28.19
2023-08-31T11:43:46.661Z,28.38
2023-08-31T11:44:46.791Z,28.51
2023-08-31T11:45:47.042Z,28.61
2023-08-31T11:46:47.160Z,28.78
2023-08-31T11:47:47.349Z,28.78
2023-08-31T11:48:47.557Z,28.78
2023-08-31T11:49:47.722Z,28.70
2023-08-31T11:50:47.941Z,28.78
2023-08-31T11:51:50.619Z,28.78
2023-08-31T11:52:48.309Z,28.68
2023-08-31T11:53:48.499Z,28.66
2023-08-31T11:54:48.687Z,28.59
2023-08-31T11:55:48.877Z,28.64
2023-08-31T11:56:49.074Z,28.76
2023-08-31T11:57:49.932Z,28.83
2023-08-31T11:59:03.993Z,28.93
2023-08-31T11:59:50.738Z,28.91
2023-08-31T12:00:49.891Z,28.83
2023-08-31T12:01:50.059Z,28.76
2023-08-31T12:02:50.236Z,28.68
2023-08-31T12:03:51.205Z,28.59
2023-08-31T12:04:50.641Z,28.49
2023-08-31T12:05:50.781Z,28.45
2023-08-31T12:06:50.919Z,28.36
2023-08-31T12:07:51.119Z,28.34
2023-08-31T12:08:51.319Z,28.23
2023-08-31T12:09:51.487Z,28.18
2023-08-31T12:10:51.675Z,28.04
2023-08-31T12:11:51.849Z,27.97
2023-08-31T12:12:52.021Z,27.86
2023-08-31T12:13:52.271Z,27.78
2023-08-31T12:14:52.405Z,27.66
2023-08-31T12:15:52.616Z,27.58
2023-08-31T12:16:52.809Z,27.47
2023-08-31T12:17:52.986Z,27.37
2023-08-31T12:18:53.144Z,27.25
2023-08-31T12:19:53.355Z,27.14
2023-08-31T12:20:53.479Z,26.98
2023-08-31T12:21:53.685Z,26.92
2023-08-31T12:22:53.897Z,26.82
2023-08-31T12:23:54.064Z,26.72
2023-08-31T12:24:54.228Z,26.61
2023-08-31T12:25:54.417Z,26.45
2023-08-31T12:26:54.614Z,26.25
2023-08-31T12:27:54.763Z,26.08
2023-08-31T12:28:54.957Z,25.84
2023-08-31T12:29:55.146Z,25.66
2023-08-31T12:30:55.302Z,25.50
2023-08-31T12:31:55.550Z,25.40
2023-08-31T12:32:55.755Z,25.43
2023-08-31T12:33:55.896Z,25.52
2023-08-31T12:34:56.062Z,25.63
2023-08-31T12:35:56.272Z,25.74
2023-08-31T12:36:56.457Z,25.80
2023-08-31T12:37:56.630Z,25.81
2023-08-31T12:38:56.839Z,25.81
2023-08-31T12:39:57.021Z,25.80
2023-08-31T12:40:57.242Z,25.88
2023-08-31T12:42:08.890Z,25.93
2023-08-31T12:42:58.556Z,25.93
2023-08-31T12:43:57.772Z,25.98
2023-08-31T12:44:57.948Z,26.03
2023-08-31T12:45:58.136Z,26.09
2023-08-31T12:46:58.288Z,26.18
2023-08-31T12:47:58.492Z,26.35
2023-08-31T12:48:58.697Z,26.50
2023-08-31T12:49:58.869Z,26.61
2023-08-31T12:50:59.029Z,26.76
2023-08-31T12:51:59.173Z,26.92
2023-08-31T12:52:59.390Z,27.03
2023-08-31T12:53:59.582Z,27.21
2023-08-31T12:54:59.761Z,27.32
2023-08-31T12:55:59.897Z,27.48
2023-08-31T12:57:00.114Z,27.63
2023-08-31T12:58:00.260Z,27.76